Honolulu, HI (96815)

8:38 AM HST on February 06, 2016 (GMT -1000)
Allure Waikiki | | Change Station
CLOSE
Current Station
Personal Weather Station
Location: Honolulu, HI
Elevation: 39 ft
Nearby Weather Stations
Active Advisory: Wind Advisory Active Notice: Record Report

Elev 39 ft 21.29 °N, 157.83 °W | Updated 11 minutes ago

Light Rain
Light Rain
72.9 °F
Feels Like 74 °F
N
2.7
Wind Variable Wind from NNW

Today
High -- | Low -- °F
--% Chance of Precip.
Yesterday
High -- | Low -- °F
Precip. -- in
Pressure 30.00 in
Visibility 9.0 miles
Clouds Mostly Cloudy 4000 ft
Overcast 5000 ft
Heat Index 74 °F
Dew Point 64 °F
Humidity 75%
Rainfall 0.00 in
Snow Depth Not available.
7:06 AM 6:24 PM
Waning Crescent, 4% visible
METAR PHNL 061753Z VRB04KT 9SM -RA BKN040 OVC050 23/20 A3000 RMK AO2 RAB40 SLP157 P0000 60000 T02280200 10239 20222 51014
Pressure 30.00 in
Visibility 9.0 miles
Clouds Mostly Cloudy 4000 ft
Overcast 5000 ft
Heat Index 74 °F
Dew Point 64 °F
Humidity 75%
Rainfall 0.00 in
Snow Depth Not available.
7:06 AM 6:24 PM
Waning Crescent, 4% visible
METAR PHNL 061753Z VRB04KT 9SM -RA BKN040 OVC050 23/20 A3000 RMK AO2 RAB40 SLP157 P0000 60000 T02280200 10239 20222 51014

10-Day Weather Forecast

Almanac

Astronomy

Feb. 06, 2016 Rise Set
Actual Time
Civil Twilight
Nautical Twilight
Astronomical Twilight
Moon
Length of Visible Light
Length of Day
Tomorrow will be .
, % of the Moon is Illuminated

Today's Extremes

State Highs State Lows

Community

WunderPhotos

Upload Photos

1,891,032 photos uploaded!

WunderBlog® & News

Nearby

Air Quality

  Air Quality AQ Index Pollutant
Not available.

Snow Depth

Station Depth Elevation

Earthquake Activity

City Distance Mag. Time & Date
Minimum magnitude displayed is 2.5.

Coastal Water Temperatures

Place Temperature

Stations

Nearby Weather Stations

Station Location Temp. Windchill Dew Point Humidity Wind Precip. Elev Updated Type
                   

Watches & Warnings

Wind Advisory
Issued: 3:32 AM HST Feb. 6, 2016 – National Weather Service

... Wind Advisory in effect from 6 PM this evening to 6 PM HST
Sunday...

The National Weather Service in Honolulu has issued a Wind
Advisory... which is in effect from 6 PM this evening to 6 PM HST
Sunday.

* Timing... tonight through Sunday.

* Winds... north up to 30 mph with gusts up to 55 mph. Winds will
be strongest downwind of higher terrain and in north facing
valleys.

* Impacts... motorists... especially those in high profile
vehicles... are urged to drive with extreme caution. Lightweight
outdoor objects may be blown around... and should be secured
before winds increase.

Precautionary/preparedness actions...

A Wind Advisory means that sustained winds of at least 30 mph...
or gusts of at least 50 mph... are expected. Motorists should use
extra caution.



Jacobson